createdAt,value
2022-10-26T00:04:47.579Z,12.9
2022-10-26T00:09:52.073Z,12.9
2022-10-26T00:14:56.616Z,12.9
2022-10-26T00:20:01.158Z,12.9
2022-10-26T00:25:04.662Z,12.9
2022-10-26T00:30:09.239Z,12.9
2022-10-26T00:35:23.105Z,12.9
2022-10-26T00:40:17.350Z,13
2022-10-26T00:45:21.822Z,13
2022-10-26T00:50:26.391Z,13
2022-10-26T00:55:29.928Z,13.1
2022-10-26T01:00:34.467Z,13
2022-10-26T01:05:39.001Z,13
2022-10-26T01:10:42.532Z,13
2022-10-26T01:15:47.100Z,13
2022-10-26T01:20:51.665Z,13
2022-10-26T01:25:56.148Z,13.1
2022-10-26T01:30:59.721Z,13.1
2022-10-26T01:36:04.290Z,13.1
2022-10-26T01:41:08.750Z,13.2
2022-10-26T01:46:12.364Z,13.2
2022-10-26T01:51:16.884Z,13.2
2022-10-26T01:56:21.535Z,13.2
2022-10-26T02:01:26.109Z,13.2
2022-10-26T02:06:30.609Z,13.2
2022-10-26T02:11:35.155Z,13.3
2022-10-26T02:16:38.661Z,13.3
2022-10-26T02:21:43.195Z,13.3
2022-10-26T02:26:47.748Z,13.4
2022-10-26T02:31:52.277Z,13.4
2022-10-26T02:36:55.875Z,13.3
2022-10-26T02:42:00.354Z,13.3
2022-10-26T02:47:04.867Z,13.3
2022-10-26T02:52:08.429Z,13.3
2022-10-26T02:57:12.979Z,13.4
2022-10-26T03:02:17.495Z,13.4
2022-10-26T03:07:21.043Z,13.4
2022-10-26T03:12:25.580Z,13.5
2022-10-26T03:17:30.176Z,13.5
2022-10-26T03:22:34.643Z,13.5
2022-10-26T03:27:38.218Z,13.5
2022-10-26T03:32:42.714Z,13.5
2022-10-26T03:37:47.577Z,13.5
2022-10-26T03:42:51.143Z,13.6
2022-10-26T03:47:55.359Z,13.5
2022-10-26T03:52:59.917Z,13.5
2022-10-26T03:58:03.458Z,13.6
2022-10-26T04:03:06.998Z,13.6
2022-10-26T04:08:11.582Z,13.8
2022-10-26T04:13:16.063Z,13.8
2022-10-26T04:18:20.575Z,13.8
2022-10-26T04:28:28.660Z,14
2022-10-26T04:33:33.221Z,13.9
2022-10-26T04:38:36.787Z,13.9
2022-10-26T04:43:41.284Z,13.9
2022-10-26T04:48:45.821Z,13.8
2022-10-26T04:53:49.401Z,14
2022-10-26T04:58:53.900Z,13.9
2022-10-26T05:03:58.446Z,13.9
2022-10-26T05:09:02.005Z,14
2022-10-26T05:14:06.504Z,14
2022-10-26T05:19:11.022Z,14
2022-10-26T05:24:15.653Z,13.9
2022-10-26T05:29:19.148Z,13.9
2022-10-26T05:34:23.698Z,13.9
2022-10-26T05:39:28.218Z,14
2022-10-26T05:44:31.742Z,14.1
2022-10-26T05:49:36.251Z,14.2
2022-10-26T05:54:40.817Z,14.2
2022-10-26T05:59:44.366Z,14.2
2022-10-26T06:04:48.925Z,14.2
2022-10-26T06:09:53.442Z,14.1
2022-10-26T06:14:56.943Z,13.9
2022-10-26T06:20:01.556Z,13.8
2022-10-26T06:25:06.043Z,13.7
2022-10-26T06:30:10.553Z,13.8
2022-10-26T06:35:14.107Z,13.8
2022-10-26T06:40:18.657Z,13.7
2022-10-26T06:45:23.196Z,13.8
2022-10-26T06:50:26.811Z,13.7
2022-10-26T06:55:31.270Z,13.6
2022-10-26T07:00:35.771Z,13.6
2022-10-26T07:05:39.590Z,13.6
2022-10-26T07:10:43.930Z,13.7
2022-10-26T07:15:48.403Z,13.7
2022-10-26T07:20:51.974Z,13.7
2022-10-26T07:25:56.527Z,13.8
2022-10-26T07:31:01.044Z,13.9
2022-10-26T07:36:05.558Z,14
2022-10-26T07:41:09.147Z,14
2022-10-26T07:46:13.634Z,14.1
2022-10-26T07:51:18.180Z,14.1
2022-10-26T07:56:21.751Z,14.2
2022-10-26T08:01:26.418Z,14.3
2022-10-26T08:06:30.757Z,14.4
2022-10-26T08:11:34.366Z,14.4
2022-10-26T08:16:38.854Z,14.6
2022-10-26T08:21:42.422Z,14.8
2022-10-26T08:26:46.997Z,15.7
2022-10-26T08:31:51.458Z,16.1
2022-10-26T08:36:55.079Z,16.2
2022-10-26T08:41:59.603Z,16.4
2022-10-26T08:47:04.124Z,16.3
2022-10-26T08:52:07.687Z,16.1
2022-10-26T08:57:12.219Z,15.8
2022-10-26T09:02:16.727Z,16.3
2022-10-26T09:07:20.244Z,16.5
2022-10-26T09:12:24.837Z,16.4
2022-10-26T09:17:29.315Z,16.1
2022-10-26T09:22:33.878Z,16.5
2022-10-26T09:27:37.463Z,16.7
2022-10-26T09:32:41.991Z,16.5
2022-10-26T09:37:46.588Z,16.3
2022-10-26T09:42:50.036Z,16.6
2022-10-26T09:47:54.589Z,17.7
2022-10-26T09:52:59.133Z,17.2
2022-10-26T09:58:03.879Z,17.2
2022-10-26T10:03:08.312Z,17.2
2022-10-26T10:08:12.863Z,17.9
2022-10-26T10:13:16.377Z,18.1
2022-10-26T10:18:20.912Z,18.9
2022-10-26T10:23:25.446Z,19.2
2022-10-26T10:28:29.973Z,20.2
2022-10-26T10:33:33.573Z,19.6
2022-10-26T10:38:38.039Z,20.6
2022-10-26T10:43:42.650Z,20.8
2022-10-26T10:48:46.217Z,21.1
2022-10-26T10:53:50.682Z,20.9
2022-10-26T10:58:55.249Z,21.4
2022-10-26T11:03:58.779Z,20.7
2022-10-26T11:09:03.323Z,21.5
2022-10-26T11:14:07.904Z,21.2
2022-10-26T11:19:11.402Z,22
2022-10-26T11:24:15.972Z,22.6
2022-10-26T11:29:20.554Z,22.3
2022-10-26T11:34:25.043Z,22.2
2022-10-26T11:39:28.615Z,21.8
2022-10-26T11:44:33.158Z,21.3
2022-10-26T11:49:37.693Z,21
2022-10-26T11:54:41.241Z,21.3
2022-10-26T11:59:45.806Z,21
2022-10-26T12:04:50.294Z,21.9
2022-10-26T12:09:54.973Z,23.7
2022-10-26T12:14:59.517Z,22.4
2022-10-26T12:20:04.049Z,22.2
2022-10-26T12:25:12.472Z,23.5
2022-10-26T12:30:12.186Z,21.8
2022-10-26T12:35:15.701Z,21.9
2022-10-26T12:40:20.231Z,21.5
2022-10-26T12:45:24.815Z,21.2
2022-10-26T12:50:28.351Z,21.4
2022-10-26T12:55:32.838Z,21.5
2022-10-26T13:00:37.472Z,21.6
2022-10-26T13:05:40.917Z,21.5
2022-10-26T13:10:45.494Z,22.8
2022-10-26T13:15:50.017Z,22.7
2022-10-26T13:20:54.554Z,23
2022-10-26T13:25:58.122Z,23.3
2022-10-26T13:31:02.666Z,22.9
2022-10-26T13:36:07.198Z,23.8
2022-10-26T13:41:10.710Z,22.5
2022-10-26T13:46:15.257Z,22.4
2022-10-26T13:51:19.794Z,22.8
2022-10-26T13:56:23.356Z,23
2022-10-26T14:01:27.954Z,23.4
2022-10-26T14:06:32.405Z,23
2022-10-26T14:11:35.959Z,22
2022-10-26T14:16:40.504Z,22.4
2022-10-26T14:21:45.031Z,22.9
2022-10-26T14:26:49.580Z,22.9
2022-10-26T14:31:53.157Z,22.5
2022-10-26T14:36:57.641Z,22.7
2022-10-26T14:42:02.180Z,22.4
2022-10-26T14:47:05.751Z,22.4
2022-10-26T14:52:10.277Z,22
2022-10-26T14:57:14.813Z,22
2022-10-26T15:02:18.521Z,22.1
2022-10-26T15:07:22.902Z,22.2
2022-10-26T15:12:27.441Z,22.9
2022-10-26T15:17:31.003Z,21.9
2022-10-26T15:22:35.523Z,21.4
2022-10-26T15:27:40.034Z,21.2
2022-10-26T15:32:44.704Z,21.1
2022-10-26T15:37:48.182Z,21
2022-10-26T15:42:52.809Z,20.9
2022-10-26T15:47:57.203Z,20.9
2022-10-26T15:53:00.744Z,20.6
2022-10-26T15:58:05.287Z,20.4
2022-10-26T16:03:09.829Z,20.2
2022-10-26T16:08:17.713Z,20.3
2022-10-26T16:13:17.899Z,20
2022-10-26T16:18:22.491Z,19.7
2022-10-26T16:23:25.984Z,19.5
2022-10-26T16:28:30.500Z,19.5
2022-10-26T16:33:35.092Z,19.4
2022-10-26T16:38:39.570Z,19.3
2022-10-26T16:43:43.182Z,19.2
2022-10-26T16:48:46.763Z,19.1
2022-10-26T16:53:51.298Z,19.1
2022-10-26T16:58:55.832Z,19.1
2022-10-26T17:03:59.428Z,19
2022-10-26T17:09:03.906Z,18.8
2022-10-26T17:14:08.477Z,18.5
2022-10-26T17:19:12.970Z,18.5
2022-10-26T17:24:16.506Z,18.5
2022-10-26T17:29:21.045Z,18.7
2022-10-26T17:34:25.644Z,18.5
2022-10-26T17:39:29.147Z,18.5
2022-10-26T17:44:33.702Z,18.4
2022-10-26T17:49:38.235Z,18.3
2022-10-26T17:54:41.748Z,18.2
2022-10-26T17:59:46.279Z,18.1
2022-10-26T18:04:50.822Z,18
2022-10-26T18:09:54.370Z,17.9
2022-10-26T18:14:58.882Z,17.8
2022-10-26T18:20:03.515Z,17.8
2022-10-26T18:25:07.946Z,17.8
2022-10-26T18:30:11.499Z,17.8
2022-10-26T18:35:16.122Z,17.7
2022-10-26T18:40:20.562Z,17.6
2022-10-26T18:45:24.116Z,17.6
2022-10-26T18:50:28.722Z,17.7
2022-10-26T18:55:33.181Z,17.7
2022-10-26T19:00:36.781Z,17.8
2022-10-26T19:05:41.296Z,17.8
2022-10-26T19:10:45.886Z,17.6
2022-10-26T19:15:49.403Z,17.4
2022-10-26T19:20:53.937Z,17.6
2022-10-26T19:25:58.450Z,17.5
2022-10-26T19:31:02.978Z,17.3
2022-10-26T19:36:06.565Z,17.2
2022-10-26T19:41:11.080Z,17.2
2022-10-26T19:46:15.600Z,17.1
2022-10-26T19:51:19.180Z,17
2022-10-26T19:56:23.662Z,17
2022-10-26T20:01:28.301Z,16.9
2022-10-26T20:06:31.773Z,16.8
2022-10-26T20:11:36.300Z,16.8
2022-10-26T20:16:40.816Z,17
2022-10-26T20:21:44.399Z,16.9
2022-10-26T20:26:48.882Z,16.7
2022-10-26T20:31:56.093Z,16.7
2022-10-26T20:36:58.009Z,16.9
2022-10-26T20:42:01.501Z,16.9
2022-10-26T20:47:06.033Z,17
2022-10-26T20:52:26.011Z,16.8
2022-10-26T20:57:14.124Z,16.8
2022-10-26T21:02:17.693Z,16.2
2022-10-26T21:07:22.274Z,16
2022-10-26T21:12:26.738Z,15.8
2022-10-26T21:17:31.260Z,15.9
2022-10-26T21:22:34.879Z,15.9
2022-10-26T21:27:39.366Z,15.9
2022-10-26T21:32:43.968Z,15.9
2022-10-26T21:37:47.671Z,16.1
2022-10-26T21:42:52.358Z,16.3
2022-10-26T21:47:56.569Z,16.3
2022-10-26T21:53:00.060Z,16.2
2022-10-26T21:58:04.598Z,16.3
2022-10-26T22:03:09.123Z,16.2
2022-10-26T22:08:12.702Z,16
2022-10-26T22:13:17.203Z,16
2022-10-26T22:18:21.739Z,16
2022-10-26T22:23:26.269Z,16.1
2022-10-26T22:28:32.101Z,16
2022-10-26T22:33:34.365Z,16
2022-10-26T22:38:38.914Z,16.2
2022-10-26T22:43:42.483Z,16.1
2022-10-26T22:48:46.988Z,16
2022-10-26T22:53:51.506Z,15.9
2022-10-26T22:58:56.130Z,15.6
2022-10-26T23:04:00.713Z,15.6
2022-10-26T23:09:05.251Z,15.7
2022-10-26T23:14:08.751Z,15.5
2022-10-26T23:19:13.275Z,15.2
2022-10-26T23:24:17.865Z,15.1
2022-10-26T23:29:22.358Z,15
2022-10-26T23:34:25.891Z,14.9
2022-10-26T23:39:30.459Z,14.9
2022-10-26T23:44:35.032Z,14.8
2022-10-26T23:49:38.511Z,14.6
2022-10-26T23:54:43.178Z,14.6
2022-10-26T23:59:47.599Z,14.5
